CheckWX is a tool to help pilots better visualize weather data.  It is not intended as a substitute for an official pre-flight weather briefing.

12:27:19 UTC

FQNC TAF
Nacala Airport
Nacala, Mozambique
TAF FQNC 221000Z 2212/2312 16010KT 9999 BKN020 FEW025CB TX31/2213Z TN25/2303Z PROB30 TEMPO 2212/2218 3000 +TSRA SCT008 OVC015 BECMG 2218/2220 25008KT BECMG 2306/2308 16010KT

Mar-22@
12:00 UTC

Mar-22 @ 12:00 UTC

Mar-22@
18:00 UTC

Mar-22 @ 18:00 UTC

TAF FQNC 221000Z 2212/2312 16010KT 9999 BKN020 FEW025CB TX31/2213Z TN25/2303Z
Wind
  • 160° at 10 KTS
Cloud Levels
  • Broken at 2,000' AGL
  • Few at 2,500' AGL

Mar-22@
12:00 UTC

Mar-22 @ 12:00 UTC

Mar-22@
18:00 UTC

Mar-22 @ 18:00 UTC

PROB30 TEMPO 2212/2218 3000 +TSRA SCT008 OVC015

Temporary - 30% Likelihood

Temporary - 30% Likelihood during this time.

Conditions
Heavy Thunderstorm, Heavy Rain
Cloud Levels
  • Scattered at 800' AGL
  • Overcast at 1,500' AGL

Mar-22@
18:00 UTC

Mar-22 @ 18:00 UTC

Mar-23@
06:00 UTC

Mar-23 @ 06:00 UTC

BECMG 2218/2220 25008KT

Becoming

Becoming Conditions expected by Fri, Mar 22, 2019 @ 20:00 UTC

Wind
  • 250° at 8 KTS
Cloud Levels
  • Broken at 2,000' AGL
  • Few at 2,500' AGL

Mar-23@
06:00 UTC

Mar-23 @ 06:00 UTC

Mar-23@
12:00 UTC

Mar-23 @ 12:00 UTC

BECMG 2306/2308 16010KT

Becoming

Becoming Conditions expected by Sat, Mar 23, 2019 @ 08:00 UTC

Wind
  • 160° at 10 KTS
Cloud Levels
  • Broken at 2,000' AGL
  • Few at 2,500' AGL